createdAt,value
2022-12-31T00:00:06.071Z,100009.78
2022-12-31T00:05:08.322Z,100006.31
2022-12-31T00:10:10.036Z,100004.59
2022-12-31T00:15:11.512Z,100007.19
2022-12-31T00:20:13.059Z,100024.44
2022-12-31T00:25:14.818Z,100018.41
2022-12-31T00:30:16.332Z,100023.59
2022-12-31T00:35:17.939Z,100025.34
2022-12-31T00:40:19.361Z,100017.56
2022-12-31T00:45:21.012Z,100035.69
2022-12-31T00:50:22.413Z,100025.34
2022-12-31T00:55:23.821Z,100023.63
2022-12-31T01:00:25.446Z,100034.84
2022-12-31T01:05:27.012Z,100032.25
2022-12-31T01:10:47.303Z,100025.34
2022-12-31T01:15:48.800Z,100021.88
2022-12-31T01:20:50.240Z,100020.16
2022-12-31T01:25:51.619Z,100013.28
2022-12-31T01:30:53.494Z,100008.06
2022-12-31T01:35:54.943Z,99995.16
2022-12-31T01:40:56.404Z,99998.59
2022-12-31T01:45:57.961Z,100002.94
2022-12-31T01:50:59.719Z,100009.81
2022-12-31T01:56:03.188Z,100013.25
2022-12-31T02:01:05.376Z,100009.81
2022-12-31T02:06:10.994Z,100031.38
2022-12-31T02:11:31.469Z,100045.16
2022-12-31T02:16:57.785Z,100056.38
2022-12-31T02:22:30.337Z,100026.16
2022-12-31T02:28:08.984Z,100019.28
2022-12-31T02:33:20.103Z,100002.91
2022-12-31T02:38:32.569Z,100003.75
2022-12-31T02:43:34.004Z,99984.78
2022-12-31T02:48:52.415Z,99982.16
2022-12-31T02:54:11.811Z,99983.06
2022-12-31T03:00:04.678Z,99991.66
2022-12-31T03:05:08.253Z,100000.25
2022-12-31T03:10:10.067Z,99989.84
2022-12-31T03:15:20.317Z,99995.91
2022-12-31T03:20:44.636Z,100010.53
2022-12-31T03:25:46.540Z,99994.16
2022-12-31T03:30:50.642Z,100009.63
2022-12-31T03:35:53.047Z,100014.81
2022-12-31T03:40:54.424Z,100013.94
2022-12-31T03:45:58.170Z,99987.25
2022-12-31T03:50:59.659Z,99992.44
2022-12-31T03:56:01.085Z,100013.09
2022-12-31T04:01:02.636Z,100015.69
2022-12-31T04:06:04.170Z,100010.50
2022-12-31T04:11:05.792Z,100009.66
2022-12-31T04:16:07.222Z,100016.53
2022-12-31T04:21:08.850Z,99994.19
2022-12-31T04:26:10.272Z,99993.31
2022-12-31T04:31:11.754Z,99987.28
2022-12-31T04:36:13.230Z,99976.94
2022-12-31T04:41:17.597Z,99970.03
2022-12-31T04:46:21.783Z,99953.66
2022-12-31T04:51:24.076Z,99967.47
2022-12-31T04:56:27.115Z,99949.38
2022-12-31T05:01:28.679Z,99948.50
2022-12-31T05:06:30.129Z,99956.28
2022-12-31T05:11:31.537Z,99961.47
2022-12-31T05:16:32.942Z,99962.34
2022-12-31T05:21:34.353Z,99967.53
2022-12-31T05:26:35.756Z,99961.50
2022-12-31T05:31:37.166Z,99960.66
2022-12-31T05:36:38.593Z,99962.41
2022-12-31T05:41:40.042Z,99964.09
2022-12-31T05:46:41.438Z,99970.13
2022-12-31T05:51:42.919Z,99965.84
2022-12-31T05:56:44.513Z,99963.22
2022-12-31T06:01:46.107Z,99970.13
2022-12-31T06:06:47.658Z,99988.25
2022-12-31T06:11:50.082Z,99990.81
2022-12-31T06:16:52.243Z,99989.97
2022-12-31T06:21:53.659Z,99976.19
2022-12-31T06:26:55.089Z,99979.63
2022-12-31T06:31:56.540Z,99980.50
2022-12-31T06:36:59.126Z,99988.25
2022-12-31T06:42:00.665Z,99987.41
2022-12-31T06:47:02.156Z,99992.56
2022-12-31T06:52:03.699Z,99992.56
2022-12-31T06:57:05.467Z,99998.59
2022-12-31T07:02:20.074Z,99995.13
2022-12-31T07:07:38.810Z,99984.72
2022-12-31T07:13:07.831Z,99994.16
2022-12-31T07:18:20.457Z,99969.03
2022-12-31T07:23:22.288Z,99960.38
2022-12-31T07:28:37.181Z,99986.31
2022-12-31T07:33:48.643Z,99984.59
2022-12-31T07:39:14.797Z,99979.44
2022-12-31T07:44:46.982Z,99982.88
2022-12-31T07:49:49.007Z,99984.56
2022-12-31T07:54:50.585Z,99988.88
2022-12-31T08:00:27.575Z,99996.59
2022-12-31T08:05:37.850Z,100012.09
2022-12-31T08:11:07.300Z,100008.72
2022-12-31T08:16:12.304Z,100020.88
2022-12-31T08:21:35.727Z,100013.97
2022-12-31T08:26:53.359Z,100023.50
2022-12-31T08:32:30.443Z,100034.72
2022-12-31T08:37:40.008Z,100056.31
2022-12-31T08:43:10.569Z,100060.63
2022-12-31T08:48:40.801Z,100068.41
2022-12-31T08:53:42.482Z,100109.88
2022-12-31T08:59:12.817Z,100114.19
2022-12-31T09:04:32.055Z,100126.28
2022-12-31T09:09:52.831Z,100131.47
2022-12-31T09:15:21.142Z,100137.50
2022-12-31T09:20:43.284Z,100153.06
2022-12-31T09:26:07.025Z,100165.16
2022-12-31T09:31:17.220Z,100166.88
2022-12-31T09:36:46.362Z,100165.97
2022-12-31T09:42:23.727Z,100160.78
2022-12-31T09:47:49.271Z,100169.44
2022-12-31T09:53:17.033Z,100159.94
2022-12-31T09:58:49.161Z,100168.53
2022-12-31T10:04:12.062Z,100178.88
2022-12-31T10:10:01.549Z,100189.88
2022-12-31T10:15:05.776Z,100180.34
2022-12-31T10:20:07.283Z,100182.00
2022-12-31T10:25:15.127Z,100181.06
2022-12-31T10:30:20.119Z,100185.38
2022-12-31T10:35:54.611Z,100184.56
2022-12-31T10:41:37.929Z,100188.00
2022-12-31T10:47:06.809Z,100191.41
2022-12-31T10:52:46.286Z,100183.63
2022-12-31T10:58:21.917Z,100189.63
2022-12-31T11:03:51.357Z,100193.09
2022-12-31T11:09:19.525Z,100205.22
2022-12-31T11:14:33.945Z,100192.28
2022-12-31T11:19:38.515Z,100187.94
2022-12-31T11:24:56.830Z,100170.50
2022-12-31T11:30:17.038Z,100177.34
2022-12-31T11:35:44.796Z,100196.41
2022-12-31T11:40:54.438Z,100190.22
2022-12-31T11:46:21.878Z,100196.19
2022-12-31T11:51:54.558Z,100211.66
2022-12-31T11:57:18.008Z,100213.47
2022-12-31T12:02:32.824Z,100219.69
2022-12-31T12:07:35.482Z,100238.81
2022-12-31T12:12:43.511Z,100237.75
2022-12-31T12:17:50.582Z,100246.44
2022-12-31T12:22:56.209Z,100261.16
2022-12-31T12:27:57.695Z,100260.41
2022-12-31T12:33:01.901Z,100256.09
2022-12-31T12:38:07.917Z,100251.03
2022-12-31T12:43:26.530Z,100258.72
2022-12-31T12:48:44.116Z,100272.63
2022-12-31T12:54:07.692Z,100281.28
2022-12-31T12:59:29.495Z,100281.25
2022-12-31T13:04:55.307Z,100299.38
2022-12-31T13:10:12.275Z,100310.66
2022-12-31T13:15:39.905Z,100325.47
2022-12-31T13:21:03.456Z,100328.03
2022-12-31T13:26:14.537Z,100326.38
2022-12-31T13:31:24.780Z,100321.09
2022-12-31T13:36:30.355Z,100335.06
2022-12-31T13:41:41.926Z,100338.50
2022-12-31T13:46:57.659Z,100333.31
2022-12-31T13:52:14.870Z,100332.50
2022-12-31T13:57:31.264Z,100339.44
2022-12-31T14:02:44.326Z,100344.56
2022-12-31T14:07:52.384Z,100345.50
2022-12-31T14:12:56.813Z,100351.53
2022-12-31T14:18:01.388Z,100354.09
2022-12-31T14:23:27.937Z,100351.47
2022-12-31T14:28:53.720Z,100349.72
2022-12-31T14:34:19.247Z,100351.47
2022-12-31T14:39:42.319Z,100361.84
2022-12-31T14:45:13.139Z,100390.47
2022-12-31T14:50:25.933Z,100398.28
2022-12-31T14:55:30.894Z,100385.28
2022-12-31T15:00:40.997Z,100395.66
2022-12-31T15:05:52.942Z,100409.53
2022-12-31T15:11:16.161Z,100414.69
2022-12-31T15:16:34.449Z,100416.44
2022-12-31T15:21:40.741Z,100415.56
2022-12-31T15:26:49.094Z,100415.56
2022-12-31T15:31:51.687Z,100422.44
2022-12-31T15:36:55.952Z,100420.72
2022-12-31T15:47:37.637Z,100426.69
2022-12-31T15:52:44.071Z,100417.19
2022-12-31T15:57:48.420Z,100412.03
2022-12-31T16:02:55.242Z,100431.13
2022-12-31T16:07:59.595Z,100433.59
2022-12-31T16:13:01.162Z,100426.63
2022-12-31T16:18:22.406Z,100441.50
2022-12-31T16:23:27.426Z,100409.28
2022-12-31T16:28:32.202Z,100411.03
2022-12-31T16:33:34.288Z,100415.38
2022-12-31T16:38:37.731Z,100410.25
2022-12-31T16:43:41.036Z,100406.78
2022-12-31T16:48:47.454Z,100410.09
2022-12-31T16:53:50.960Z,100404.22
2022-12-31T16:59:00.180Z,100403.41
2022-12-31T17:04:06.670Z,100399.78
2022-12-31T17:09:30.882Z,100419.06
2022-12-31T17:14:47.779Z,100406.81
2022-12-31T17:19:51.683Z,100402.53
2022-12-31T17:24:59.947Z,100402.53
2022-12-31T17:30:35.414Z,100401.66
2022-12-31T17:35:42.056Z,100395.72
2022-12-31T17:40:53.018Z,100395.63
2022-12-31T17:45:54.814Z,100399.97
2022-12-31T17:51:01.233Z,100409.53
2022-12-31T17:56:04.533Z,100406.84
2022-12-31T18:01:07.440Z,100402.59
2022-12-31T18:06:16.290Z,100413.81
2022-12-31T18:11:21.368Z,100411.28
2022-12-31T18:16:22.880Z,100422.47
2022-12-31T18:21:32.421Z,100408.56
2022-12-31T18:26:35.335Z,100399.69
2022-12-31T18:31:39.812Z,100393.72
2022-12-31T18:36:41.713Z,100393.81
2022-12-31T18:41:46.407Z,100392.94
2022-12-31T18:46:50.795Z,100413.81
2022-12-31T18:51:54.187Z,100404.97
2022-12-31T18:56:57.349Z,100411.16
2022-12-31T19:01:59.157Z,100417.25
2022-12-31T19:07:00.765Z,100403.41
2022-12-31T19:12:02.224Z,100417.19
2022-12-31T19:22:05.447Z,100441.47
2022-12-31T19:27:06.968Z,100445.84
2022-12-31T19:32:09.773Z,100445.03
2022-12-31T19:37:15.582Z,100431.94
2022-12-31T19:42:17.143Z,100433.72
2022-12-31T19:47:18.963Z,100430.25
2022-12-31T19:52:20.439Z,100430.22
2022-12-31T19:57:21.893Z,100432.91
2022-12-31T20:02:23.484Z,100447.56
2022-12-31T20:07:27.276Z,100434.72
2022-12-31T20:12:29.664Z,100434.66
2022-12-31T20:17:31.438Z,100439.00
2022-12-31T20:22:33.040Z,100452.84
2022-12-31T20:27:36.219Z,100452.78
2022-12-31T20:32:37.674Z,100460.66
2022-12-31T20:37:39.404Z,100453.75
2022-12-31T20:42:41.359Z,100444.25
2022-12-31T20:47:42.818Z,100459.88
2022-12-31T20:52:44.507Z,100462.38
2022-12-31T20:57:46.255Z,100459.75
2022-12-31T21:02:55.524Z,100468.34
2022-12-31T21:07:59.285Z,100461.50
2022-12-31T21:13:01.825Z,100456.22
2022-12-31T21:18:03.308Z,100460.56
2022-12-31T21:23:05.028Z,100477.94
2022-12-31T21:28:06.488Z,100471.84
2022-12-31T21:33:09.570Z,100492.66
2022-12-31T21:38:12.526Z,100493.47
2022-12-31T21:43:17.010Z,100499.53
2022-12-31T21:48:24.146Z,100498.69
2022-12-31T21:53:34.228Z,100495.09
2022-12-31T21:58:40.782Z,100506.41
2022-12-31T22:03:43.349Z,100505.59
2022-12-31T22:08:45.904Z,100500.28
2022-12-31T22:13:49.192Z,100520.25
2022-12-31T22:18:50.698Z,100525.38
2022-12-31T22:23:54.985Z,100534.16
2022-12-31T22:28:59.289Z,100535.88
2022-12-31T22:34:02.021Z,100530.59
2022-12-31T22:39:03.571Z,100536.63
2022-12-31T22:44:05.212Z,100533.19
2022-12-31T22:49:06.713Z,100533.25
2022-12-31T22:54:10.461Z,100543.69
2022-12-31T22:59:11.947Z,100541.88
2022-12-31T23:04:16.026Z,100559.25
2022-12-31T23:09:37.153Z,100569.69
2022-12-31T23:14:57.164Z,100567.03
2022-12-31T23:20:19.951Z,100570.56
2022-12-31T23:25:21.570Z,100562.56
2022-12-31T23:30:23.099Z,100580.03
2022-12-31T23:35:25.097Z,100570.41
2022-12-31T23:40:34.393Z,100563.50
2022-12-31T23:45:36.429Z,100564.34
2022-12-31T23:50:40.538Z,100568.72
2022-12-31T23:55:43.160Z,100573.09
